Troy, Tennessee
Current Conditions -  °F | °C
As of 2:35 AM on Monday 24 Nov 2014 (Local Time) from KUCY Reporting Station
Overcast Overcast  
Wind Chill: 59°   Ceiling: 2400
Heat Index: 59°   Visibility: 10mi
Dew Point: 55°   Wind: 12mph
Humidity: 88%   Direction: 210°SSW
Pressure: 29.36"   Gusts: NA
Location:  36.34°N, 89.16°W
Report Text: KUCY 240835Z AUTO 21010KT 10SM BKN024 BKN030 OVC040 15/13 A2936 RMK
Loading
Personal Weather Stations






























Interactive Weather Map New forecast layout! Learn more

10-Day Weather Forecast

Advertisements
Track Severe Weather on mobile